Time;durP1;ratioP1;P1;durP2;ratioP2;P2;SDS_P1;SDS_P2;PMS_P1;PMS_P2;Temp;Humidity;BMP_temperature;BMP_pressure;BME280_temperature;BME280_humidity;BME280_pressure;Samples;Min_cycle;Max_cycle;Signal;HPM_P1;HPM_P2
2020/12/10 00:02:50;;;;;;;1.05;0.73;;;;;;;2.89;100.00;98242.31;5034498;28;20173;-74
2020/12/10 00:05:59;;;;;;;0.55;0.50;;;;;;;2.88;100.00;98240.78;5034407;28;20104;-74
2020/12/10 00:09:08;;;;;;;13.80;1.05;;;;;;;2.88;100.00;98235.28;5034141;28;20049;-74
2020/12/10 00:12:11;;;;;;;1.45;0.60;;;;;;;2.90;100.00;98226.59;5037742;28;20048;-74
2020/12/10 00:15:14;;;;;;;1.55;0.57;;;;;;;2.90;100.00;98227.31;5054399;28;20051;-75
2020/12/10 00:18:17;;;;;;;1.70;0.82;;;;;;;2.91;100.00;98223.38;5054233;28;20060;-74
2020/12/10 00:21:21;;;;;;;1.48;0.95;;;;;;;2.94;100.00;98222.44;5054049;28;20136;-75
2020/12/10 00:24:23;;;;;;;1.00;0.93;;;;;;;2.94;100.00;98214.19;5054252;28;20131;-74
2020/12/10 00:27:26;;;;;;;1.23;0.98;;;;;;;2.94;100.00;98211.44;5054132;28;20064;-74
2020/12/10 00:30:29;;;;;;;0.68;0.68;;;;;;;2.93;100.00;98215.41;5054025;28;20110;-75
2020/12/10 00:33:32;;;;;;;0.85;0.60;;;;;;;2.98;100.00;98217.53;5053771;28;20056;-74
2020/12/10 00:36:35;;;;;;;3.55;0.98;;;;;;;3.04;100.00;98209.41;5055495;28;20052;-74
2020/12/10 00:39:38;;;;;;;2.60;1.00;;;;;;;3.09;100.00;98214.28;5054739;28;20400;-75
2020/12/10 00:42:41;;;;;;;0.60;0.60;;;;;;;3.13;100.00;98205.84;5053822;28;20515;-74
2020/12/10 00:45:46;;;;;;;5.15;0.98;;;;;;;3.20;100.00;98211.03;5053731;28;20052;-75
2020/12/10 00:48:52;;;;;;;1.70;0.70;;;;;;;3.17;100.00;98200.94;5054331;28;20403;-74
2020/12/10 00:51:55;;;;;;;0.93;0.50;;;;;;;3.16;100.00;98194.72;5053695;28;20186;-75
2020/12/10 00:54:59;;;;;;;3.33;1.52;;;;;;;3.18;100.00;98192.25;5053474;28;20048;-74
2020/12/10 00:58:02;;;;;;;0.80;0.73;;;;;;;3.15;100.00;98186.91;5053297;28;20060;-74
2020/12/10 01:01:09;;;;;;;5.35;1.15;;;;;;;3.12;100.00;98193.34;5053758;28;20122;-75
2020/12/10 01:04:13;;;;;;;7.78;1.20;;;;;;;3.13;100.00;98187.38;5053406;28;20055;-74
2020/12/10 01:07:16;;;;;;;1.13;0.57;;;;;;;3.15;100.00;98192.41;5053074;28;20628;-75
2020/12/10 01:10:19;;;;;;;7.50;1.10;;;;;;;3.17;100.00;98184.44;5052802;28;20178;-74
2020/12/10 01:13:22;;;;;;;1.48;0.40;;;;;;;3.17;100.00;98184.44;5053088;28;20090;-74
2020/12/10 01:16:26;;;;;;;0.75;0.52;;;;;;;3.18;100.00;98174.97;5053363;28;20131;-74
2020/12/10 01:19:29;;;;;;;0.40;0.40;;;;;;;3.20;100.00;98189.03;5053318;28;20052;-75
2020/12/10 01:22:32;;;;;;;1.30;0.85;;;;;;;3.21;100.00;98180.28;5052974;28;20072;-75
2020/12/10 01:25:38;;;;;;;15.07;1.25;;;;;;;3.24;100.00;98184.88;5052831;28;20064;-74
2020/12/10 01:28:41;;;;;;;1.38;1.15;;;;;;;3.23;100.00;98182.59;5053372;28;20052;-74
2020/12/10 01:31:47;;;;;;;0.40;0.40;;;;;;;3.27;100.00;98189.44;5053058;28;20119;-75
2020/12/10 01:34:51;;;;;;;5.82;0.55;;;;;;;3.27;100.00;98178.41;5052985;28;20134;-74
2020/12/10 01:37:57;;;;;;;10.20;2.00;;;;;;;3.32;100.00;98180.53;5052437;28;20052;-74
2020/12/10 01:41:04;;;;;;;0.20;0.20;;;;;;;3.36;100.00;98185.84;5052596;28;20090;-75
2020/12/10 01:44:09;;;;;;;0.38;0.10;;;;;;;3.35;100.00;98192.59;5039891;28;20044;-74
2020/12/10 01:47:13;;;;;;;0.55;0.55;;;;;;;3.40;100.00;98181.72;5052366;28;20123;-75
2020/12/10 01:50:16;;;;;;;0.25;0.25;;;;;;;3.42;100.00;98184.00;5052652;28;20098;-74
2020/12/10 01:53:22;;;;;;;6.40;0.82;;;;;;;3.43;100.00;98180.78;5052608;28;20048;-74
2020/12/10 01:56:28;;;;;;;1.45;1.02;;;;;;;3.42;100.00;98173.00;5052667;28;20048;-75
2020/12/10 01:59:31;;;;;;;2.40;0.65;;;;;;;3.41;100.00;98183.25;5052424;28;20527;-74
2020/12/10 02:02:34;;;;;;;0.95;0.50;;;;;;;3.42;100.00;98178.50;5052197;28;20064;-75
2020/12/10 02:05:55;;;;;;;0.90;0.82;;;;;;;3.44;100.00;98184.31;5052525;28;20055;-74
2020/12/10 02:08:58;;;;;;;0.90;0.90;;;;;;;3.41;100.00;98177.75;5052250;28;20144;-75
2020/12/10 02:12:04;;;;;;;4.85;1.00;;;;;;;3.43;100.00;98174.50;5052031;28;20284;-75
2020/12/10 02:15:08;;;;;;;0.75;0.75;;;;;;;3.40;100.00;98176.22;5051829;28;20110;-75
2020/12/10 02:18:12;;;;;;;0.85;0.85;;;;;;;3.40;100.00;98175.47;5051932;28;20056;-74
2020/12/10 02:21:15;;;;;;;0.45;0.45;;;;;;;3.39;100.00;98177.44;5051981;28;20048;-75
2020/12/10 02:24:20;;;;;;;1.23;0.85;;;;;;;3.42;100.00;98181.25;5051956;28;20052;-75
2020/12/10 02:27:23;;;;;;;0.30;0.30;;;;;;;3.43;100.00;98186.28;5052454;28;20514;-76
2020/12/10 02:30:27;;;;;;;0.52;0.40;;;;;;;3.41;100.00;98190.72;5053117;28;20127;-75
2020/12/10 02:33:30;;;;;;;0.57;0.57;;;;;;;3.41;100.00;98188.75;5052904;28;20099;-74
2020/12/10 02:36:35;;;;;;;3.83;1.00;;;;;;;3.43;100.00;98197.28;5052199;28;20072;-74
2020/12/10 02:39:37;;;;;;;3.92;1.13;;;;;;;3.44;100.00;98192.56;5052175;28;20044;-75
2020/12/10 02:42:43;;;;;;;0.60;0.50;;;;;;;3.44;100.00;98181.56;5039800;28;20082;-75
2020/12/10 02:45:49;;;;;;;0.88;0.57;;;;;;;3.46;100.00;98192.84;5051878;28;20123;-74
2020/12/10 02:48:53;;;;;;;0.82;0.57;;;;;;;3.45;100.00;98174.81;5039706;28;20136;-74
2020/12/10 02:51:56;;;;;;;0.17;0.17;;;;;;;3.46;100.00;98179.09;5051838;28;20125;-74
2020/12/10 02:55:00;;;;;;;3.30;0.52;;;;;;;3.45;100.00;98189.34;5052032;28;20437;-74
2020/12/10 02:58:03;;;;;;;1.27;0.60;;;;;;;3.48;100.00;98180.16;5055576;28;20186;-75
2020/12/10 03:01:07;;;;;;;0.15;0.15;;;;;;;3.46;100.00;98181.84;5055543;28;20106;-75
2020/12/10 03:04:10;;;;;;;0.68;0.57;;;;;;;3.46;100.00;98173.59;5055617;28;20048;-75
2020/12/10 03:07:15;;;;;;;1.05;0.65;;;;;;;3.46;100.00;98170.84;5055544;28;20063;-74
2020/12/10 03:10:17;;;;;;;0.68;0.68;;;;;;;3.46;100.00;98162.59;5055178;28;20051;-74
2020/12/10 03:13:25;;;;;;;0.47;0.22;;;;;;;3.50;100.00;98169.44;5055193;28;20056;-74
2020/12/10 03:16:28;;;;;;;1.95;0.75;;;;;;;3.50;100.00;98165.91;5055187;28;20168;-74
2020/12/10 03:19:32;;;;;;;0.22;0.20;;;;;;;3.51;100.00;98170.94;5055181;28;20094;-73
2020/12/10 03:22:35;;;;;;;1.42;0.73;;;;;;;3.52;100.00;98177.22;5055092;28;20099;-75
2020/12/10 03:25:37;;;;;;;3.45;1.48;;;;;;;3.55;100.00;98179.03;5055274;28;20186;-74
2020/12/10 03:28:40;;;;;;;1.75;0.47;;;;;;;3.55;100.00;98181.78;5043003;28;20132;-74
2020/12/10 03:31:44;;;;;;;8.75;0.98;;;;;;;3.54;100.00;98180.25;5055114;28;20056;-76
2020/12/10 03:34:47;;;;;;;0.63;0.30;;;;;;;3.55;100.00;98179.03;5055329;28;20060;-73
2020/12/10 03:37:50;;;;;;;1.27;0.52;;;;;;;3.56;100.00;98166.78;5054940;28;20060;-73
2020/12/10 03:40:54;;;;;;;1.10;0.80;;;;;;;3.54;100.00;98163.75;5054948;28;20080;-73
2020/12/10 03:43:56;;;;;;;1.65;0.50;;;;;;;3.54;100.00;98156.25;5055123;28;20161;-74
2020/12/10 03:46:59;;;;;;;0.20;0.20;;;;;;;3.53;100.00;98151.22;5055088;28;20136;-73
2020/12/10 03:50:03;;;;;;;0.32;0.32;;;;;;;3.52;100.00;98155.97;5054692;28;20043;-73
2020/12/10 03:53:06;;;;;;;0.55;0.22;;;;;;;3.51;100.00;98159.19;5054456;28;20067;-73
2020/12/10 03:56:13;;;;;;;1.55;0.20;;;;;;;3.52;100.00;98160.69;5054263;28;20048;-73
2020/12/10 03:59:16;;;;;;;0.75;0.47;;;;;;;3.49;100.00;98156.91;5054872;28;20102;-73
2020/12/10 04:02:19;;;;;;;9.52;0.82;;;;;;;3.53;100.00;98162.25;5055124;28;20493;-74
2020/12/10 04:05:22;;;;;;;6.75;0.40;;;;;;;3.52;100.00;98160.69;5055428;28;20052;-74
2020/12/10 04:08:26;;;;;;;1.63;0.80;;;;;;;3.53;100.00;98159.47;5054456;28;20083;-74
2020/12/10 04:11:29;;;;;;;3.92;1.08;;;;;;;3.53;100.00;98156.72;5054007;28;20060;-73
2020/12/10 04:14:32;;;;;;;1.00;0.40;;;;;;;3.56;100.00;98161.28;5054062;28;20044;-73
2020/12/10 04:17:44;;;;;;;2.22;0.70;;;;;;;3.54;100.00;98155.50;5053960;28;20044;-73
2020/12/10 04:20:47;;;;;;;2.28;1.08;;;;;;;3.53;100.00;98162.25;5054223;28;20110;-73
2020/12/10 04:23:51;;;;;;;1.35;1.25;;;;;;;3.54;100.00;98163.75;5054303;28;20056;-73
2020/12/10 04:26:54;;;;;;;0.47;0.47;;;;;;;3.53;100.00;98173.25;5055776;28;20086;-72
2020/12/10 04:29:57;;;;;;;0.60;0.60;;;;;;;3.53;100.00;98182.25;5055806;28;20044;-73
2020/12/10 04:33:00;;;;;;;0.63;0.63;;;;;;;3.54;100.00;98180.25;5054378;28;20480;-73
2020/12/10 04:36:04;;;;;;;1.48;0.88;;;;;;;3.54;100.00;98185.75;5053958;28;20150;-73
2020/12/10 04:39:07;;;;;;;0.63;0.60;;;;;;;3.55;100.00;98182.53;5053744;28;20508;-73
2020/12/10 04:42:10;;;;;;;4.25;1.25;;;;;;;3.57;100.00;98190.34;5053668;28;20047;-73
2020/12/10 04:45:14;;;;;;;0.50;0.50;;;;;;;3.55;100.00;98182.53;5053679;28;20052;-73
2020/12/10 04:48:16;;;;;;;0.70;0.70;;;;;;;3.56;100.00;98178.56;5053555;28;20048;-72
2020/12/10 04:51:21;;;;;;;1.40;0.55;;;;;;;3.55;100.00;98177.03;5053485;28;20087;-73
2020/12/10 04:54:24;;;;;;;13.48;0.85;;;;;;;3.55;100.00;98168.78;5053842;28;20056;-74
2020/12/10 04:57:29;;;;;;;0.30;0.30;;;;;;;3.56;100.00;98172.28;5053205;28;20493;-73
2020/12/10 05:00:32;;;;;;;1.17;0.75;;;;;;;3.55;100.00;98176.28;5052915;28;20051;-73
2020/12/10 05:03:35;;;;;;;5.80;1.42;;;;;;;3.55;100.00;98181.78;5053056;28;20052;-73
2020/12/10 05:06:48;;;;;;;1.00;0.85;;;;;;;3.58;100.00;98180.84;5053428;28;20394;-72
2020/12/10 05:09:57;;;;;;;1.95;1.05;;;;;;;3.57;100.00;98173.81;5053087;28;20060;-73
2020/12/10 05:13:08;;;;;;;0.20;0.20;;;;;;;3.59;100.00;98179.63;5052990;28;20140;-73
2020/12/10 05:16:21;;;;;;;2.63;0.75;;;;;;;3.57;100.00;98179.31;5032959;28;20123;-73
2020/12/10 05:19:24;;;;;;;6.53;0.73;;;;;;;3.58;100.00;98175.34;5032993;28;20072;-73
2020/12/10 05:22:27;;;;;;;3.00;0.82;;;;;;;3.60;100.00;98178.38;5033021;28;20049;-73
2020/12/10 05:25:30;;;;;;;0.98;0.43;;;;;;;3.57;100.00;98182.09;5032973;28;20056;-73
2020/12/10 05:28:48;;;;;;;1.10;0.73;;;;;;;3.55;100.00;98176.28;5033304;28;20056;-73
2020/12/10 05:31:51;;;;;;;9.30;1.27;;;;;;;3.52;100.00;98171.72;5032418;28;20072;-74
2020/12/10 05:34:55;;;;;;;0.88;0.65;;;;;;;3.50;100.00;98174.16;5032641;28;20080;-73
2020/12/10 05:38:07;;;;;;;11.85;0.95;;;;;;;3.55;100.00;98176.28;5032374;28;20056;-74
2020/12/10 05:41:20;;;;;;;26.88;1.42;;;;;;;3.56;100.00;98172.28;5032638;28;20095;-73
2020/12/10 05:44:25;;;;;;;1.70;0.90;;;;;;;3.60;100.00;98183.88;5032305;28;20425;-73
2020/12/10 05:47:29;;;;;;;10.43;0.90;;;;;;;3.58;100.00;98180.84;5032405;28;20314;-74
2020/12/10 05:50:33;;;;;;;3.05;0.85;;;;;;;3.59;100.00;98196.13;5032570;28;20133;-73
2020/12/10 05:53:41;;;;;;;25.92;0.60;;;;;;;3.60;100.00;98194.88;5032376;28;20107;-73
2020/12/10 05:56:55;;;;;;;3.40;0.63;;;;;;;3.61;100.00;98201.94;5032326;28;20052;-73
2020/12/10 06:00:03;;;;;;;8.52;1.40;;;;;;;3.66;100.00;98204.03;5032488;28;20076;-73
2020/12/10 06:03:06;;;;;;;1.48;0.63;;;;;;;3.69;100.00;98197.59;5031755;28;20166;-73
2020/12/10 06:06:09;;;;;;;0.80;0.60;;;;;;;3.67;100.00;98205.56;5032122;28;20062;-72
2020/12/10 06:09:13;;;;;;;3.08;1.30;;;;;;;3.68;100.00;98196.81;5032096;28;20103;-73
2020/12/10 06:12:23;;;;;;;1.98;0.75;;;;;;;3.72;100.00;98188.41;5032219;28;20103;-73
2020/12/10 06:15:27;;;;;;;0.98;0.63;;;;;;;3.70;100.00;98194.34;5051110;28;20048;-73
2020/12/10 06:18:30;;;;;;;3.60;1.50;;;;;;;3.72;100.00;98213.19;5052016;28;20048;-73
2020/12/10 06:21:39;;;;;;;2.42;0.55;;;;;;;3.73;100.00;98217.44;5052026;28;20452;-75
2020/12/10 06:24:42;;;;;;;4.03;0.75;;;;;;;3.71;100.00;98206.13;5053207;28;20055;-73
2020/12/10 06:27:44;;;;;;;1.70;0.20;;;;;;;3.71;100.00;98215.16;5051714;28;20063;-74
2020/12/10 06:31:17;;;;;;;0.55;0.55;;;;;;;3.70;100.00;98210.88;5051351;28;20583;-74
2020/12/10 06:34:41;;;;;;;19.85;1.42;;;;;;;3.71;100.00;98225.41;5051805;28;20087;-73
2020/12/10 06:37:47;;;;;;;14.70;1.00;;;;;;;3.74;100.00;98224.47;5051736;28;20543;-75
2020/12/10 06:40:59;;;;;;;2.10;0.75;;;;;;;3.77;100.00;98226.28;5051644;28;20549;-73
2020/12/10 06:44:02;;;;;;;0.30;0.30;;;;;;;3.76;100.00;98222.00;5051741;28;20053;-73
2020/12/10 06:47:05;;;;;;;8.90;1.05;;;;;;;3.79;100.00;98226.56;5051640;28;20056;-74
2020/12/10 06:50:31;;;;;;;0.35;0.35;;;;;;;3.81;100.00;98232.38;5051571;28;20052;-75
2020/12/10 06:53:34;;;;;;;0.75;0.30;;;;;;;3.80;100.00;98236.34;5051482;28;20516;-73
2020/12/10 06:57:00;;;;;;;1.52;0.55;;;;;;;3.77;100.00;98245.53;5051762;28;20499;-74
2020/12/10 07:00:03;;;;;;;0.30;0.30;;;;;;;3.78;100.00;98255.34;5051859;28;20098;-75
2020/12/10 07:03:34;;;;;;;0.10;0.10;;;;;;;3.78;100.00;98267.13;5039321;28;20087;-74
2020/12/10 07:06:37;;;;;;;0.90;0.75;;;;;;;3.78;100.00;98266.34;5051446;28;20133;-74
2020/12/10 07:09:49;;;;;;;4.00;1.30;;;;;;;3.80;100.00;98269.41;5051349;28;20536;-74
2020/12/10 07:12:52;;;;;;;;;;;;;;;3.77;100.00;98275.81;5052010;28;20103;-74
2020/12/10 07:15:55;;;;;;;6.95;0.63;;;;;;;3.80;100.00;98280.41;5031497;28;19924;-74
2020/12/10 07:18:58;;;;;;;1.58;0.90;;;;;;;3.79;100.00;98290.66;5031534;28;20049;-72
2020/12/10 07:22:02;;;;;;;1.95;0.85;;;;;;;3.79;100.00;98289.88;5031618;28;20090;-75
2020/12/10 07:25:05;;;;;;;2.25;1.40;;;;;;;3.75;100.00;98290.06;5031531;28;20137;-75
2020/12/10 07:28:08;;;;;;;1.38;0.30;;;;;;;3.78;100.00;98285.63;5031668;28;20068;-76
2020/12/10 07:31:17;;;;;;;6.22;0.30;;;;;;;3.74;100.00;98282.28;5031370;28;20548;-76
2020/12/10 07:34:20;;;;;;;0.55;0.40;;;;;;;3.74;100.00;98276.78;5031804;28;20057;-75
2020/12/10 07:37:31;;;;;;;0.40;0.22;;;;;;;3.74;100.00;98279.53;5031319;28;20072;-75
2020/12/10 07:40:34;;;;;;;0.22;0.22;;;;;;;3.74;100.00;98282.28;5031327;28;20140;-75
2020/12/10 07:43:47;;;;;;;0.22;0.22;;;;;;;3.76;100.00;98279.81;5033181;28;20449;-75
2020/12/10 07:46:50;;;;;;;1.35;0.32;;;;;;;3.77;100.00;98289.59;5034743;28;20095;-75
2020/12/10 07:49:53;;;;;;;3.65;0.68;;;;;;;3.78;100.00;98277.38;5034789;28;20052;-72
2020/12/10 07:52:57;;;;;;;14.48;2.05;;;;;;;3.73;100.00;98286.25;5034777;28;20122;-73
2020/12/10 07:56:02;;;;;;;0.85;0.55;;;;;;;3.72;100.00;98284.75;5034874;28;20080;-76
2020/12/10 07:59:11;;;;;;;0.95;0.20;;;;;;;3.74;100.00;98293.28;5033652;28;20420;-73
2020/12/10 08:02:21;;;;;;;7.03;1.65;;;;;;;3.73;100.00;98300.00;5034903;28;20068;-76
2020/12/10 08:05:24;;;;;;;7.32;0.35;;;;;;;3.74;100.00;98293.28;5034301;28;20061;-76
2020/12/10 08:08:47;;;;;;;0.20;0.10;;;;;;;3.80;100.00;98302.44;5034336;28;20084;-76
2020/12/10 08:11:55;;;;;;;2.40;0.73;;;;;;;3.82;100.00;98299.97;5033914;28;20413;-75
2020/12/10 08:14:58;;;;;;;1.52;0.77;;;;;;;3.86;100.00;98300.56;5056165;28;20048;-75
2020/12/10 08:18:06;;;;;;;1.85;0.60;;;;;;;3.88;100.00;98303.59;5054354;28;20186;-75
2020/12/10 08:21:08;;;;;;;0.75;0.73;;;;;;;3.93;100.00;98311.22;5055369;28;20132;-74
2020/12/10 08:24:13;;;;;;;1.05;0.52;;;;;;;3.96;100.00;98315.81;5053981;28;20163;-75
2020/12/10 08:27:17;;;;;;;0.35;0.20;;;;;;;3.96;100.00;98313.06;5054128;28;20090;-75
2020/12/10 08:30:20;;;;;;;0.70;0.65;;;;;;;3.98;100.00;98307.84;5054068;28;20108;-75
2020/12/10 08:33:36;;;;;;;1.02;0.40;;;;;;;3.98;100.00;98299.56;5054265;28;20051;-75
2020/12/10 08:36:39;;;;;;;11.95;1.27;;;;;;;3.96;100.00;98302.03;5053899;28;20048;-74
2020/12/10 08:39:41;;;;;;;3.30;0.47;;;;;;;3.99;100.00;98314.84;5053585;28;20093;-75
2020/12/10 08:42:44;;;;;;;4.40;0.55;;;;;;;4.01;100.00;98311.63;5053924;28;20120;-75
2020/12/10 08:45:48;;;;;;;4.82;0.32;;;;;;;4.01;100.00;98304.13;5053221;28;20052;-75
2020/12/10 08:48:52;;;;;;;2.65;0.35;;;;;;;4.04;100.00;98307.94;5053283;28;20543;-76
2020/12/10 08:51:55;;;;;;;1.73;0.25;;;;;;;4.07;100.00;98305.00;5053514;28;20063;-75
2020/12/10 08:54:58;;;;;;;13.90;1.05;;;;;;;4.11;100.00;98305.63;5053123;28;20636;-76
2020/12/10 08:58:01;;;;;;;0.45;0.30;;;;;;;4.14;100.00;98299.16;5053422;28;20071;-76
2020/12/10 09:01:05;;;;;;;2.72;0.50;;;;;;;4.17;100.00;98302.97;5053535;28;20052;-76
2020/12/10 09:04:08;;;;;;;1.67;0.80;;;;;;;4.22;100.00;98300.31;5053464;28;20048;-75
2020/12/10 09:07:13;;;;;;;0.95;0.40;;;;;;;4.23;100.00;98293.56;5053145;28;20058;-76
2020/12/10 09:10:16;;;;;;;0.65;0.65;;;;;;;4.25;100.00;98287.59;5052896;28;20099;-76
2020/12/10 09:13:23;;;;;;;2.30;0.85;;;;;;;4.25;100.00;98282.84;5053028;28;20052;-74
2020/12/10 09:16:27;;;;;;;2.28;0.45;;;;;;;4.23;100.00;98282.56;5053132;28;20055;-75
2020/12/10 09:19:30;;;;;;;2.88;0.77;;;;;;;4.21;100.00;98293.28;5053001;28;20099;-74
2020/12/10 09:22:33;;;;;;;1.65;0.68;;;;;;;4.14;100.00;98293.63;5052723;28;20052;-74
2020/12/10 09:25:37;;;;;;;1.88;1.08;;;;;;;4.06;100.00;98284.22;5052786;28;20060;-74
2020/12/10 09:28:41;;;;;;;2.95;0.98;;;;;;;4.03;100.00;98285.16;5053058;28;20071;-75
2020/12/10 09:31:43;;;;;;;1.30;0.35;;;;;;;4.00;100.00;98277.06;5052499;28;20047;-76
2020/12/10 09:34:46;;;;;;;1.60;0.60;;;;;;;3.99;100.00;98281.03;5051502;28;20122;-74
2020/12/10 09:37:49;;;;;;;4.68;1.00;;;;;;;3.97;100.00;98273.25;5050680;28;20122;-76
2020/12/10 09:40:52;;;;;;;5.35;1.75;;;;;;;3.98;100.00;98269.28;5032656;28;20091;-75
2020/12/10 09:43:55;;;;;;;2.08;1.05;;;;;;;4.03;100.00;98267.88;5032638;28;20517;-76
2020/12/10 09:46:58;;;;;;;1.58;0.88;;;;;;;4.11;100.00;98272.56;5032695;28;20076;-75
2020/12/10 09:50:02;;;;;;;1.38;0.63;;;;;;;4.20;100.00;98272.47;5032430;28;20075;-75
2020/12/10 09:53:35;;;;;;;5.47;0.80;;;;;;;4.24;100.00;98272.31;5032725;28;20481;-75
2020/12/10 09:59:50;;;;;;;2.83;0.82;;;;;;;4.32;100.00;98282.50;5032290;28;20191;-74
2020/12/10 10:02:53;;;;;;;7.38;1.45;;;;;;;4.39;100.00;98287.66;5032279;28;20076;-74
2020/12/10 10:05:56;;;;;;;8.38;0.75;;;;;;;4.45;100.00;98285.75;5031538;28;20052;-74
2020/12/10 10:08:59;;;;;;;0.60;0.25;;;;;;;4.48;100.00;98289.56;5032390;28;20060;-74
2020/12/10 10:12:04;;;;;;;1.55;1.45;;;;;;;4.47;100.00;98277.00;5032070;28;20049;-73
2020/12/10 10:15:07;;;;;;;0.40;0.38;;;;;;;4.42;100.00;98277.66;5048347;28;20101;-73
2020/12/10 10:18:10;;;;;;;0.80;0.30;;;;;;;4.44;100.00;98284.22;5054255;28;20067;-73
2020/12/10 10:21:17;;;;;;;0.60;0.22;;;;;;;4.45;100.00;98285.75;5051698;28;20052;-73
2020/12/10 10:24:21;;;;;;;2.35;0.82;;;;;;;4.40;100.00;98272.63;5051958;28;20106;-74
2020/12/10 10:27:23;;;;;;;4.32;1.90;;;;;;;4.43;100.00;98270.91;5051957;28;20126;-74
2020/12/10 10:30:26;;;;;;;2.22;0.73;;;;;;;4.45;100.00;98277.47;5051691;28;20098;-73
2020/12/10 10:33:29;;;;;;;1.98;0.90;;;;;;;4.50;100.00;98271.28;5051903;28;20136;-72
2020/12/10 10:36:32;;;;;;;9.57;1.20;;;;;;;4.57;100.00;98278.44;5051903;28;20099;-73
2020/12/10 10:39:35;;;;;;;3.67;1.23;;;;;;;4.67;100.00;98274.38;5051776;28;20382;-74
2020/12/10 10:42:38;;;;;;;1.20;0.77;;;;;;;4.72;100.00;98270.94;5051911;28;20075;-73
2020/12/10 10:45:40;;;;;;;1.95;0.98;;;;;;;4.76;100.00;98268.78;5051709;28;20055;-72
2020/12/10 10:48:43;;;;;;;3.53;0.68;;;;;;;4.82;100.00;98266.09;5051618;28;20095;-73
2020/12/10 10:51:49;;;;;;;1.02;0.22;;;;;;;4.81;100.00;98256.31;5051531;28;20098;-73
2020/12/10 10:54:52;;;;;;;16.50;1.27;;;;;;;4.83;100.00;98264.88;5050889;28;20051;-73
2020/12/10 10:57:55;;;;;;;2.40;1.50;;;;;;;4.83;100.00;98253.84;5051474;28;20048;-73
2020/12/10 11:00:58;;;;;;;9.10;0.60;;;;;;;4.87;100.00;98260.69;5051673;28;20083;-71
2020/12/10 11:04:01;;;;;;;5.57;1.05;;;;;;;4.91;100.00;98266.78;5051711;28;20064;-73
2020/12/10 11:07:05;;;;;;;6.10;0.75;;;;;;;4.95;100.00;98261.84;5051636;28;20460;-73
2020/12/10 11:10:09;;;;;;;10.13;1.10;;;;;;;5.00;100.00;98257.66;5051444;28;20091;-73
2020/12/10 11:13:12;;;;;;;0.60;0.60;;;;;;;5.03;100.00;98262.97;5051534;28;20432;-73
2020/12/10 11:16:15;;;;;;;3.88;1.50;;;;;;;5.07;100.00;98268.28;5051659;28;20094;-72
2020/12/10 11:19:17;;;;;;;4.72;0.68;;;;;;;5.11;100.00;98255.81;5055418;28;20075;-72
2020/12/10 11:22:20;;;;;;;1.85;0.63;;;;;;;5.16;100.00;98268.19;5055312;28;20133;-72
2020/12/10 11:25:23;;;;;;;0.93;0.88;;;;;;;5.22;100.00;98263.50;5055261;28;20444;-73
2020/12/10 11:28:27;;;;;;;3.58;0.50;;;;;;;5.26;100.00;98264.09;5055304;28;20047;-72
2020/12/10 11:31:29;;;;;;;11.30;0.77;;;;;;;5.30;100.00;98267.41;5054891;28;20083;-72
2020/12/10 11:34:32;;;;;;;3.78;1.05;;;;;;;5.31;100.00;98255.13;5055290;28;20063;-72
2020/12/10 11:37:35;;;;;;;3.38;0.85;;;;;;;5.31;100.00;98263.41;5055007;28;20102;-72
2020/12/10 11:40:39;;;;;;;1.98;0.75;;;;;;;5.34;100.00;98260.47;5055049;28;20396;-74
2020/12/10 11:43:42;;;;;;;2.67;0.93;;;;;;;5.38;100.00;98260.25;5055053;28;20105;-74
2020/12/10 11:46:47;;;;;;;14.60;1.75;;;;;;;5.36;100.00;98265.50;5054967;28;20063;-75
2020/12/10 11:49:49;;;;;;;6.38;1.40;;;;;;;5.34;100.00;98265.22;5054632;28;20047;-74
2020/12/10 11:52:53;;;;;;;1.55;0.40;;;;;;;5.31;100.00;98266.16;5055297;28;20051;-74
2020/12/10 11:55:55;;;;;;;2.28;0.60;;;;;;;5.29;100.00;98265.88;5054546;28;20091;-75
2020/12/10 11:58:59;;;;;;;0.85;0.60;;;;;;;5.27;100.00;98265.59;5054523;28;20051;-74
2020/12/10 12:02:01;;;;;;;6.63;0.82;;;;;;;5.25;100.00;98257.81;5055019;28;20064;-75
2020/12/10 12:05:06;;;;;;;3.92;1.17;;;;;;;5.23;100.00;98254.75;5053684;28;20667;-75
2020/12/10 12:08:09;;;;;;;3.97;0.43;;;;;;;5.22;100.00;98263.50;5018863;28;20053;-75
2020/12/10 12:11:13;;;;;;;5.18;0.75;;;;;;;5.20;100.00;98243.91;5020451;28;20102;-77
2020/12/10 12:14:15;;;;;;;6.72;1.38;;;;;;;5.17;100.00;98244.88;5021099;28;20074;-76
2020/12/10 12:17:18;;;;;;;1.45;0.55;;;;;;;5.15;100.00;98231.56;5020752;28;20578;-80
2020/12/10 12:20:25;;;;;;;4.10;0.88;;;;;;;5.13;100.00;98220.22;5040853;28;20109;-77
2020/12/10 12:23:27;;;;;;;1.83;0.68;;;;;;;5.14;100.00;98218.22;5054909;28;20087;-78
2020/12/10 12:26:32;;;;;;;5.55;1.52;;;;;;;5.13;100.00;98208.44;5053672;28;20123;-77
2020/12/10 12:29:35;;;;;;;2.03;1.05;;;;;;;5.15;100.00;98214.25;5053277;28;20505;-77
2020/12/10 12:32:39;;;;;;;3.92;0.98;;;;;;;5.14;100.00;98212.72;5054955;28;20144;-76
2020/12/10 12:35:42;;;;;;;5.97;1.55;;;;;;;5.13;100.00;98225.00;5053797;28;20503;-77
2020/12/10 12:38:45;;;;;;;4.30;1.33;;;;;;;5.12;100.00;98238.03;5053874;28;20114;-77
2020/12/10 12:41:47;;;;;;;4.97;2.03;;;;;;;5.10;100.00;98229.47;5053686;28;20043;-77
2020/12/10 12:44:50;;;;;;;7.22;2.15;;;;;;;5.11;100.00;98224.72;5053533;28;20052;-76
2020/12/10 12:47:54;;;;;;;1.50;0.40;;;;;;;5.11;100.00;98225.47;5053399;28;20062;-77
2020/12/10 12:50:56;;;;;;;2.67;1.55;;;;;;;5.11;100.00;98221.97;5040997;28;20500;-77
2020/12/10 12:53:59;;;;;;;0.88;0.75;;;;;;;5.12;100.00;98226.22;5053737;28;20551;-77
2020/12/10 12:57:02;;;;;;;2.78;1.27;;;;;;;5.10;100.00;98225.94;5046337;28;20079;-77
2020/12/10 13:00:05;;;;;;;9.60;2.35;;;;;;;5.11;100.00;98208.16;5052179;28;20047;-76
2020/12/10 13:03:08;;;;;;;2.90;0.68;;;;;;;5.12;100.00;98193.13;5052622;28;20044;-78
2020/12/10 13:06:12;;;;;;;1.95;0.65;;;;;;;5.13;100.00;98184.34;5053008;28;20048;-77
2020/12/10 13:09:17;;;;;;;14.55;1.50;;;;;;;5.15;100.00;98183.91;5053269;28;20428;-77
2020/12/10 13:12:20;;;;;;;1.30;0.80;;;;;;;5.20;100.00;98183.19;5038806;28;20618;-78
2020/12/10 13:15:23;;;;;;;16.27;2.50;;;;;;;5.22;100.00;98180.72;5051272;28;20535;-77
2020/12/10 13:18:26;;;;;;;3.40;1.17;;;;;;;5.23;100.00;98166.47;5033185;28;20115;-76
2020/12/10 13:21:29;;;;;;;7.05;1.25;;;;;;;5.23;100.00;98154.66;5051747;28;20122;-78
2020/12/10 13:24:32;;;;;;;4.78;1.05;;;;;;;5.21;100.00;98152.38;5040432;28;20071;-79
2020/12/10 13:27:35;;;;;;;3.55;1.73;;;;;;;5.19;100.00;98143.06;5047355;28;20087;-77
2020/12/10 13:30:38;;;;;;;2.75;1.10;;;;;;;5.21;100.00;98143.34;5051670;28;20480;-76
2020/12/10 13:33:41;;;;;;;1.92;1.52;;;;;;;5.20;100.00;98144.56;5051483;28;20040;-75
2020/12/10 13:36:44;;;;;;;9.48;1.48;;;;;;;5.20;100.00;98139.81;5048949;28;20101;-75
2020/12/10 13:39:47;;;;;;;0.90;0.73;;;;;;;5.21;100.00;98124.03;5050632;28;20536;-74
2020/12/10 13:42:51;;;;;;;2.33;1.05;;;;;;;5.20;100.00;98128.78;5048424;28;20080;-74
2020/12/10 13:45:53;;;;;;;3.53;1.48;;;;;;;5.18;100.00;98122.97;5049087;28;20048;-75
2020/12/10 13:48:59;;;;;;;2.10;1.05;;;;;;;5.15;100.00;98121.22;5049886;28;20051;-75
2020/12/10 13:52:02;;;;;;;4.40;1.75;;;;;;;5.14;100.00;98102.34;5050364;28;20047;-72
2020/12/10 13:55:07;;;;;;;2.35;1.58;;;;;;;5.11;100.00;98100.56;5053306;28;20086;-74
2020/12/10 13:58:10;;;;;;;3.75;1.63;;;;;;;5.11;100.00;98095.06;5048403;28;20103;-75
2020/12/10 14:01:13;;;;;;;0.50;0.50;;;;;;;5.11;100.00;98089.53;5051039;28;20128;-76
2020/12/10 14:04:18;;;;;;;7.72;1.60;;;;;;;5.10;100.00;98085.25;5048590;28;20138;-74
2020/12/10 14:07:21;;;;;;;4.35;0.85;;;;;;;5.10;100.00;98079.72;5048605;28;20059;-74
2020/12/10 14:10:24;;;;;;;1.70;0.95;;;;;;;5.12;100.00;98069.72;5049128;28;20056;-75
2020/12/10 14:13:28;;;;;;;3.63;0.85;;;;;;;5.11;100.00;98059.19;5050256;28;20106;-76
2020/12/10 14:16:31;;;;;;;8.13;1.48;;;;;;;5.09;100.00;98050.63;5049001;28;20095;-76
2020/12/10 14:19:37;;;;;;;12.52;1.92;;;;;;;5.08;100.00;98052.63;5048677;28;20106;-77
2020/12/10 14:22:40;;;;;;;3.90;1.30;;;;;;;5.10;100.00;98043.88;5052054;28;20557;-77
2020/12/10 14:25:42;;;;;;;5.18;2.17;;;;;;;5.10;100.00;98041.09;5050289;28;20051;-76
2020/12/10 14:28:47;;;;;;;2.28;0.82;;;;;;;5.09;100.00;98042.38;5050308;28;20044;-76
2020/12/10 14:31:50;;;;;;;3.15;1.63;;;;;;;5.10;100.00;98030.06;5048985;28;20052;-76
2020/12/10 14:34:53;;;;;;;15.40;2.13;;;;;;;5.09;100.00;98015.50;5048070;28;20039;-76